createdAt,value
2023-02-19T00:00:15.265Z,4.20
2023-02-19T00:02:48.368Z,4.11
2023-02-19T00:05:17.498Z,4.23
2023-02-19T00:07:46.519Z,4.14
2023-02-19T00:10:15.749Z,4.23
2023-02-19T00:12:44.859Z,4.22
2023-02-19T00:15:13.905Z,4.18
2023-02-19T00:17:43.011Z,4.25
2023-02-19T00:20:14.175Z,4.22
2023-02-19T00:22:43.252Z,4.28
2023-02-19T00:25:12.376Z,4.31
2023-02-19T00:27:41.446Z,4.22
2023-02-19T00:30:12.054Z,4.24
2023-02-19T00:32:41.447Z,4.22
2023-02-19T00:35:14.867Z,4.26
2023-02-19T00:37:44.032Z,4.23
2023-02-19T00:40:13.560Z,4.13
2023-02-19T00:42:42.686Z,4.27
2023-02-19T00:45:11.798Z,4.31
2023-02-19T00:47:40.858Z,4.26
2023-02-19T00:50:10.279Z,4.27
2023-02-19T00:52:41.000Z,4.26
2023-02-19T00:55:10.268Z,4.36
2023-02-19T00:57:39.529Z,4.30
2023-02-19T01:00:09.987Z,4.41
2023-02-19T01:02:39.063Z,4.42
2023-02-19T01:05:08.656Z,4.44
2023-02-19T01:07:38.482Z,4.39
2023-02-19T01:10:09.639Z,4.37
2023-02-19T01:12:38.778Z,4.38
2023-02-19T01:15:08.454Z,4.33
2023-02-19T01:17:37.745Z,4.29
2023-02-19T01:20:07.436Z,4.30
2023-02-19T01:22:36.508Z,4.26
2023-02-19T01:25:05.891Z,4.26
2023-02-19T01:27:36.297Z,4.32
2023-02-19T01:30:06.007Z,4.36
2023-02-19T01:32:35.286Z,4.27
2023-02-19T01:35:04.542Z,4.32
2023-02-19T01:37:33.800Z,4.35
2023-02-19T01:40:03.705Z,4.30
2023-02-19T01:42:32.791Z,4.24
2023-02-19T01:45:29.237Z,4.19
2023-02-19T01:48:10.108Z,3.97
2023-02-19T01:50:43.201Z,4.03
2023-02-19T01:53:15.941Z,4.04
2023-02-19T01:55:47.783Z,4.00
2023-02-19T01:58:17.614Z,3.99
2023-02-19T02:00:48.350Z,3.99
2023-02-19T02:03:17.516Z,4.03
2023-02-19T02:05:55.720Z,3.85
2023-02-19T02:08:58.240Z,4.01
2023-02-19T02:11:27.652Z,3.91
2023-02-19T02:13:57.874Z,3.99
2023-02-19T02:16:39.162Z,3.93
2023-02-19T02:19:24.309Z,3.87
2023-02-19T02:22:06.765Z,3.81
2023-02-19T02:25:10.644Z,3.92
2023-02-19T02:27:52.412Z,3.92
2023-02-19T02:30:39.223Z,3.88
2023-02-19T02:33:21.176Z,3.86
2023-02-19T02:35:55.923Z,3.97
2023-02-19T02:38:29.898Z,3.89
2023-02-19T02:40:59.497Z,3.91
2023-02-19T02:43:29.124Z,3.94
2023-02-19T02:45:59.583Z,3.92
2023-02-19T02:48:38.397Z,3.88
2023-02-19T02:51:17.015Z,3.83
2023-02-19T02:54:14.322Z,3.84
2023-02-19T02:56:46.483Z,3.71
2023-02-19T02:59:18.020Z,3.74
2023-02-19T03:02:12.241Z,3.72
2023-02-19T03:05:08.461Z,3.64
2023-02-19T03:07:41.982Z,3.70
2023-02-19T03:10:16.438Z,3.70
2023-02-19T03:13:04.768Z,3.69
2023-02-19T03:15:57.040Z,3.59
2023-02-19T03:18:48.817Z,3.68
2023-02-19T03:21:23.019Z,3.57
2023-02-19T03:24:11.147Z,3.60
2023-02-19T03:26:42.768Z,3.63
2023-02-19T03:29:26.984Z,3.59
2023-02-19T03:32:09.600Z,3.55
2023-02-19T03:34:45.453Z,3.52
2023-02-19T03:37:19.499Z,3.54
2023-02-19T03:39:48.706Z,3.59
2023-02-19T03:42:28.588Z,3.58
2023-02-19T03:45:10.351Z,3.58
2023-02-19T03:47:48.229Z,3.54
2023-02-19T03:50:22.962Z,3.49
2023-02-19T03:53:02.965Z,3.49
2023-02-19T03:55:41.906Z,3.48
2023-02-19T03:58:17.484Z,3.49
2023-02-19T04:00:55.095Z,3.51
2023-02-19T04:03:30.023Z,3.49
2023-02-19T04:06:04.038Z,3.51
2023-02-19T04:08:37.258Z,3.53
2023-02-19T04:11:10.113Z,3.50
2023-02-19T04:13:45.606Z,3.45
2023-02-19T04:16:20.392Z,3.38
2023-02-19T04:18:52.923Z,3.33
2023-02-19T04:21:25.176Z,3.27
2023-02-19T04:23:54.418Z,3.24
2023-02-19T04:26:24.717Z,3.17
2023-02-19T04:28:54.883Z,3.16
2023-02-19T04:31:25.142Z,3.12
2023-02-19T04:33:54.193Z,3.08
2023-02-19T04:36:24.636Z,3.02
2023-02-19T04:38:53.705Z,2.92
2023-02-19T04:41:22.813Z,2.97
2023-02-19T04:43:51.911Z,2.94
2023-02-19T04:46:21.118Z,2.92
2023-02-19T04:48:50.212Z,2.89
2023-02-19T04:51:19.319Z,2.87
2023-02-19T04:53:49.728Z,2.85
2023-02-19T04:56:19.355Z,2.85
2023-02-19T04:58:48.538Z,2.84
2023-02-19T05:01:17.953Z,2.93
2023-02-19T05:03:47.056Z,2.84
2023-02-19T05:06:16.180Z,2.82
2023-02-19T05:08:45.276Z,2.83
2023-02-19T05:11:15.680Z,2.80
2023-02-19T05:13:44.867Z,2.78
2023-02-19T05:16:16.067Z,2.81
2023-02-19T05:18:46.759Z,2.72
2023-02-19T05:21:16.649Z,2.75
2023-02-19T05:23:45.974Z,2.71
2023-02-19T05:26:19.971Z,2.72
2023-02-19T05:28:51.182Z,2.73
2023-02-19T05:31:20.959Z,2.65
2023-02-19T05:33:51.260Z,2.67
2023-02-19T05:36:22.185Z,2.67
2023-02-19T05:38:55.066Z,2.62
2023-02-19T05:41:27.142Z,2.54
2023-02-19T05:43:57.142Z,2.53
2023-02-19T05:46:28.090Z,2.53
2023-02-19T05:48:58.092Z,2.47
2023-02-19T05:51:28.758Z,2.39
2023-02-19T05:53:58.626Z,2.38
2023-02-19T05:56:39.383Z,2.32
2023-02-19T05:59:15.096Z,2.36
2023-02-19T06:01:44.263Z,2.36
2023-02-19T06:04:15.475Z,2.37
2023-02-19T06:06:44.648Z,2.30
2023-02-19T06:09:14.001Z,2.35
2023-02-19T06:11:44.798Z,2.31
2023-02-19T06:14:14.871Z,2.23
2023-02-19T06:16:43.992Z,2.25
2023-02-19T06:19:13.111Z,2.29
2023-02-19T06:21:42.222Z,2.26
2023-02-19T06:24:11.828Z,2.22
2023-02-19T06:26:40.919Z,2.26
2023-02-19T06:29:11.307Z,2.21
2023-02-19T06:31:40.492Z,2.27
2023-02-19T06:34:09.683Z,2.34
2023-02-19T06:36:38.796Z,2.33
2023-02-19T06:39:08.209Z,2.28
2023-02-19T06:41:37.262Z,2.32
2023-02-19T06:44:06.504Z,2.37
2023-02-19T06:46:37.232Z,2.29
2023-02-19T06:49:06.598Z,2.28
2023-02-19T06:51:36.090Z,2.35
2023-02-19T06:54:05.280Z,2.34
2023-02-19T06:56:35.806Z,2.45
2023-02-19T06:59:07.599Z,2.46
2023-02-19T07:01:39.463Z,2.47
2023-02-19T07:04:08.598Z,2.46
2023-02-19T07:06:38.686Z,2.51
2023-02-19T07:09:08.997Z,2.59
2023-02-19T07:11:40.047Z,2.69
2023-02-19T07:14:18.248Z,2.69
2023-02-19T07:16:49.071Z,2.68
2023-02-19T07:19:18.215Z,2.73
2023-02-19T07:21:47.328Z,2.78
2023-02-19T07:24:16.576Z,2.81
2023-02-19T07:26:45.626Z,2.87
2023-02-19T07:29:14.744Z,2.99
2023-02-19T07:31:44.716Z,3.07
2023-02-19T07:34:15.112Z,3.17
2023-02-19T07:36:44.207Z,3.20
2023-02-19T07:39:14.640Z,3.26
2023-02-19T07:41:43.732Z,3.31
2023-02-19T07:44:19.679Z,3.21
2023-02-19T07:46:48.749Z,3.35
2023-02-19T07:49:19.312Z,3.47
2023-02-19T07:51:48.401Z,3.33
2023-02-19T07:54:17.442Z,3.42
2023-02-19T07:56:46.492Z,3.30
2023-02-19T07:59:15.845Z,3.43
2023-02-19T08:02:02.698Z,3.33
2023-02-19T08:04:33.252Z,3.42
2023-02-19T08:07:02.329Z,3.35
2023-02-19T08:09:31.499Z,3.41
2023-02-19T08:12:17.890Z,3.55
2023-02-19T08:14:46.976Z,3.79
2023-02-19T08:17:16.034Z,3.79
2023-02-19T08:19:46.458Z,3.81
2023-02-19T08:22:16.271Z,3.71
2023-02-19T08:24:45.339Z,3.80
2023-02-19T08:27:14.397Z,4.00
2023-02-19T08:29:43.440Z,4.17
2023-02-19T08:32:12.540Z,4.08
2023-02-19T08:34:41.844Z,4.25
2023-02-19T08:37:12.256Z,4.41
2023-02-19T08:39:41.355Z,4.38
2023-02-19T08:42:10.413Z,4.46
2023-02-19T08:44:39.507Z,4.54
2023-02-19T08:47:08.573Z,4.69
2023-02-19T08:49:37.610Z,4.62
2023-02-19T08:52:06.814Z,4.82
2023-02-19T08:54:37.493Z,4.74
2023-02-19T08:57:06.652Z,4.81
2023-02-19T08:59:35.710Z,4.83
2023-02-19T09:02:04.859Z,4.91
2023-02-19T09:04:33.961Z,4.75
2023-02-19T09:07:03.114Z,4.96
2023-02-19T09:09:32.162Z,5.20
2023-02-19T09:12:02.698Z,5.33
2023-02-19T09:14:33.563Z,5.52
2023-02-19T09:17:03.364Z,5.42
2023-02-19T09:19:32.885Z,5.79
2023-02-19T09:22:02.039Z,5.86
2023-02-19T09:24:31.242Z,6.43
2023-02-19T09:27:01.691Z,6.58
2023-02-19T09:29:31.555Z,6.36
2023-02-19T09:32:02.309Z,6.46
2023-02-19T09:34:31.490Z,6.79
2023-02-19T09:37:00.553Z,6.85
2023-02-19T09:39:29.731Z,6.72
2023-02-19T09:42:03.733Z,7.16
2023-02-19T09:44:36.317Z,6.87
2023-02-19T09:47:10.193Z,6.47
2023-02-19T09:49:43.523Z,7.15
2023-02-19T09:52:20.208Z,7.16
2023-02-19T09:54:49.631Z,6.88
2023-02-19T09:57:22.420Z,6.70
2023-02-19T09:59:53.952Z,7.00
2023-02-19T10:02:25.553Z,7.38
2023-02-19T10:04:55.175Z,6.94
2023-02-19T10:07:26.666Z,6.85
2023-02-19T10:09:59.586Z,6.95
2023-02-19T10:12:31.968Z,6.98
2023-02-19T10:15:12.782Z,6.99
2023-02-19T10:17:41.887Z,6.53
2023-02-19T10:20:14.354Z,6.85
2023-02-19T10:22:44.350Z,6.74
2023-02-19T10:25:17.395Z,6.96
2023-02-19T10:27:47.904Z,7.18
2023-02-19T10:30:22.525Z,7.75
2023-02-19T10:33:04.936Z,7.50
2023-02-19T10:35:39.515Z,7.36
2023-02-19T10:38:08.752Z,7.35
2023-02-19T10:40:44.831Z,7.49
2023-02-19T10:43:31.013Z,7.40
2023-02-19T10:46:06.041Z,7.22
2023-02-19T10:48:38.496Z,7.45
2023-02-19T10:51:10.551Z,7.88
2023-02-19T10:53:45.591Z,8.19
2023-02-19T10:56:16.834Z,8.30
2023-02-19T10:58:47.652Z,8.10
2023-02-19T11:01:20.491Z,8.44
2023-02-19T11:03:51.270Z,8.28
2023-02-19T11:06:22.622Z,8.41
2023-02-19T11:08:54.957Z,8.06
2023-02-19T11:11:30.369Z,8.38
2023-02-19T11:14:05.096Z,8.36
2023-02-19T11:16:43.045Z,8.67
2023-02-19T11:19:28.272Z,8.16
2023-02-19T11:21:58.225Z,8.33
2023-02-19T11:24:33.782Z,8.55
2023-02-19T11:27:05.731Z,8.68
2023-02-19T11:29:36.334Z,8.46
2023-02-19T11:32:30.553Z,8.58
2023-02-19T11:35:17.845Z,9.16
2023-02-19T11:38:01.294Z,8.66
2023-02-19T11:40:41.989Z,8.06
2023-02-19T11:43:34.634Z,8.39
2023-02-19T11:46:10.537Z,8.55
2023-02-19T11:48:53.797Z,8.60
2023-02-19T11:51:46.154Z,8.55
2023-02-19T11:54:40.035Z,9.06
2023-02-19T11:57:20.062Z,9.10
2023-02-19T11:59:55.982Z,9.25
2023-02-19T12:02:57.811Z,9.63
2023-02-19T12:05:43.294Z,9.78
2023-02-19T12:08:32.015Z,9.37
2023-02-19T12:11:16.547Z,8.92
2023-02-19T12:14:03.170Z,9.25
2023-02-19T12:16:38.038Z,8.83
2023-02-19T12:19:36.692Z,9.21
2023-02-19T12:22:28.276Z,9.35
2023-02-19T12:25:24.730Z,9.19
2023-02-19T12:28:16.379Z,9.58
2023-02-19T12:31:06.622Z,9.72
2023-02-19T12:34:05.059Z,9.30
2023-02-19T12:36:41.628Z,8.88
2023-02-19T12:39:23.993Z,8.79
2023-02-19T12:42:04.356Z,8.89
2023-02-19T12:44:41.630Z,9.27
2023-02-19T12:47:20.502Z,9.35
2023-02-19T12:50:04.785Z,9.39
2023-02-19T12:52:40.302Z,10.02
2023-02-19T12:55:22.133Z,9.78
2023-02-19T12:57:52.686Z,8.96
2023-02-19T13:00:34.363Z,9.35
2023-02-19T13:03:12.120Z,9.42
2023-02-19T13:05:48.861Z,9.39
2023-02-19T13:08:27.294Z,8.98
2023-02-19T13:11:02.307Z,8.65
2023-02-19T13:13:38.446Z,8.53
2023-02-19T13:16:15.101Z,8.45
2023-02-19T13:18:49.860Z,9.25
2023-02-19T13:21:35.354Z,9.11
2023-02-19T13:24:08.797Z,9.77
2023-02-19T13:26:57.290Z,10.15
2023-02-19T13:29:54.583Z,10.04
2023-02-19T13:32:39.458Z,9.53
2023-02-19T13:35:25.976Z,9.31
2023-02-19T13:37:56.586Z,9.72
2023-02-19T13:40:32.879Z,9.34
2023-02-19T13:43:06.040Z,8.97
2023-02-19T13:45:39.845Z,9.56
2023-02-19T13:48:25.406Z,9.48
2023-02-19T13:51:35.608Z,8.68
2023-02-19T13:54:21.209Z,8.95
2023-02-19T13:56:51.054Z,8.81
2023-02-19T13:59:43.471Z,8.69
2023-02-19T14:02:36.387Z,8.85
2023-02-19T14:05:10.624Z,9.21
2023-02-19T14:08:04.355Z,9.50
2023-02-19T14:10:57.785Z,9.38
2023-02-19T14:14:11.060Z,8.88
2023-02-19T14:17:19.566Z,9.29
2023-02-19T14:19:55.926Z,9.76
2023-02-19T14:22:47.772Z,9.22
2023-02-19T14:25:28.700Z,9.27
2023-02-19T14:28:03.502Z,9.58
2023-02-19T14:30:35.879Z,9.15
2023-02-19T14:33:11.337Z,8.82
2023-02-19T14:35:45.842Z,8.39
2023-02-19T14:38:21.302Z,7.80
2023-02-19T14:40:53.074Z,7.67
2023-02-19T14:43:25.895Z,8.16
2023-02-19T14:45:59.413Z,8.61
2023-02-19T14:48:34.726Z,8.56
2023-02-19T14:51:09.190Z,8.13
2023-02-19T14:53:43.843Z,8.63
2023-02-19T14:56:24.048Z,8.09
2023-02-19T14:59:09.596Z,8.12
2023-02-19T15:01:39.909Z,8.27
2023-02-19T15:04:23.464Z,7.91
2023-02-19T15:06:57.005Z,7.72
2023-02-19T15:09:31.589Z,7.52
2023-02-19T15:12:02.682Z,7.50
2023-02-19T15:14:32.690Z,7.20
2023-02-19T15:17:05.069Z,7.33
2023-02-19T15:19:39.497Z,7.39
2023-02-19T15:22:21.071Z,7.59
2023-02-19T15:24:50.592Z,7.23
2023-02-19T15:27:21.569Z,7.19
2023-02-19T15:29:53.709Z,7.06
2023-02-19T15:32:26.301Z,7.01
2023-02-19T15:34:57.037Z,6.96
2023-02-19T15:37:29.910Z,7.03
2023-02-19T15:40:01.283Z,6.87
2023-02-19T15:42:32.727Z,6.88
2023-02-19T15:45:08.339Z,6.80
2023-02-19T15:47:40.948Z,6.70
2023-02-19T15:50:17.020Z,6.75
2023-02-19T15:52:59.279Z,6.74
2023-02-19T15:55:35.286Z,6.69
2023-02-19T15:58:10.072Z,6.58
2023-02-19T16:00:45.534Z,6.52
2023-02-19T16:03:20.444Z,6.54
2023-02-19T16:06:00.754Z,6.51
2023-02-19T16:08:33.307Z,6.36
2023-02-19T16:11:05.488Z,6.45
2023-02-19T16:13:36.300Z,6.32
2023-02-19T16:16:16.368Z,6.32
2023-02-19T16:18:47.642Z,6.33
2023-02-19T16:21:19.120Z,6.22
2023-02-19T16:23:54.635Z,6.27
2023-02-19T16:26:24.025Z,6.10
2023-02-19T16:28:54.626Z,6.07
2023-02-19T16:31:25.416Z,6.16
2023-02-19T16:33:54.666Z,6.06
2023-02-19T16:36:27.320Z,6.02
2023-02-19T16:39:22.943Z,5.88
2023-02-19T16:42:19.861Z,5.74
2023-02-19T16:44:49.597Z,5.72
2023-02-19T16:47:44.861Z,5.78
2023-02-19T16:50:17.795Z,5.73
2023-02-19T16:52:54.024Z,5.77
2023-02-19T16:55:25.514Z,5.58
2023-02-19T16:57:55.254Z,5.60
2023-02-19T17:00:26.443Z,5.54
2023-02-19T17:02:59.552Z,5.55
2023-02-19T17:05:32.307Z,5.46
2023-02-19T17:08:01.465Z,5.44
2023-02-19T17:10:31.884Z,5.55
2023-02-19T17:13:01.098Z,5.43
2023-02-19T17:15:30.344Z,5.34
2023-02-19T17:17:59.428Z,5.37
2023-02-19T17:20:32.641Z,5.30
2023-02-19T17:23:01.833Z,5.19
2023-02-19T17:25:32.418Z,5.22
2023-02-19T17:28:01.543Z,5.29
2023-02-19T17:30:32.684Z,5.31
2023-02-19T17:33:01.918Z,5.31
2023-02-19T17:35:31.043Z,5.32
2023-02-19T17:38:00.249Z,5.21
2023-02-19T17:40:33.825Z,5.29
2023-02-19T17:43:03.488Z,5.30
2023-02-19T17:45:32.693Z,5.19
2023-02-19T17:48:02.229Z,5.16
2023-02-19T17:50:32.895Z,5.28
2023-02-19T17:53:02.005Z,5.27
2023-02-19T17:55:33.573Z,5.25
2023-02-19T17:58:02.940Z,5.23
2023-02-19T18:00:32.624Z,5.15
2023-02-19T18:03:01.716Z,5.25
2023-02-19T18:05:31.379Z,5.20
2023-02-19T18:08:00.586Z,5.35
2023-02-19T18:10:30.461Z,5.39
2023-02-19T18:13:00.995Z,5.40
2023-02-19T18:15:30.244Z,5.45
2023-02-19T18:17:59.516Z,5.43
2023-02-19T18:20:31.198Z,5.50
2023-02-19T18:23:00.729Z,5.34
2023-02-19T18:25:30.147Z,5.47
2023-02-19T18:28:01.533Z,5.37
2023-02-19T18:30:31.036Z,5.34
2023-02-19T18:33:00.814Z,5.43
2023-02-19T18:35:30.290Z,5.43
2023-02-19T18:37:59.779Z,5.41
2023-02-19T18:40:29.258Z,5.42
2023-02-19T18:43:00.049Z,5.42
2023-02-19T18:45:29.840Z,5.49
2023-02-19T18:47:59.169Z,5.46
2023-02-19T18:50:28.618Z,5.44
2023-02-19T18:52:58.025Z,5.38
2023-02-19T18:55:27.420Z,5.43
2023-02-19T18:57:57.036Z,5.47
2023-02-19T19:00:27.935Z,5.51
2023-02-19T19:02:58.834Z,5.47
2023-02-19T19:05:28.348Z,5.43
2023-02-19T19:07:59.416Z,5.43
2023-02-19T19:10:29.234Z,5.44
2023-02-19T19:13:01.211Z,5.43
2023-02-19T19:15:31.962Z,5.51
2023-02-19T19:18:02.856Z,5.40
2023-02-19T19:20:32.108Z,5.46
2023-02-19T19:23:01.369Z,5.49
2023-02-19T19:25:30.594Z,5.33
2023-02-19T19:27:59.860Z,5.31
2023-02-19T19:30:29.161Z,5.16
2023-02-19T19:33:03.878Z,5.21
2023-02-19T19:35:33.250Z,5.13
2023-02-19T19:38:02.938Z,5.11
2023-02-19T19:40:32.730Z,5.06
2023-02-19T19:43:01.913Z,5.15
2023-02-19T19:45:31.236Z,5.07
2023-02-19T19:48:01.973Z,5.05
2023-02-19T19:50:31.977Z,4.89
2023-02-19T19:53:01.200Z,4.96
2023-02-19T19:55:30.524Z,4.89
2023-02-19T19:58:00.875Z,4.96
2023-02-19T20:00:30.460Z,4.92
2023-02-19T20:03:01.022Z,4.86
2023-02-19T20:05:30.184Z,4.81
2023-02-19T20:07:59.517Z,4.78
2023-02-19T20:10:28.931Z,4.85
2023-02-19T20:12:58.261Z,4.80
2023-02-19T20:15:27.732Z,4.85
2023-02-19T20:17:57.047Z,4.78
2023-02-19T20:20:27.600Z,4.78
2023-02-19T20:23:00.260Z,4.75
2023-02-19T20:25:29.440Z,4.67
2023-02-19T20:27:58.754Z,4.71
2023-02-19T20:30:28.160Z,4.62
2023-02-19T20:32:57.794Z,4.64
2023-02-19T20:35:29.927Z,4.64
2023-02-19T20:37:59.380Z,4.70
2023-02-19T20:40:30.523Z,4.74
2023-02-19T20:43:01.014Z,4.65
2023-02-19T20:45:30.898Z,4.60
2023-02-19T20:48:00.727Z,4.62
2023-02-19T20:50:31.444Z,4.64
2023-02-19T20:53:01.216Z,4.59
2023-02-19T20:55:31.924Z,4.57
2023-02-19T20:58:01.271Z,4.54
2023-02-19T21:00:30.462Z,4.62
2023-02-19T21:02:59.835Z,4.76
2023-02-19T21:05:30.378Z,4.70
2023-02-19T21:07:59.412Z,4.71
2023-02-19T21:10:28.484Z,4.60
2023-02-19T21:12:57.628Z,4.63
2023-02-19T21:15:26.656Z,4.60
2023-02-19T21:17:55.740Z,4.57
2023-02-19T21:20:24.828Z,4.65
2023-02-19T21:22:55.525Z,4.66
2023-02-19T21:25:24.714Z,4.59
2023-02-19T21:27:53.830Z,4.65
2023-02-19T21:30:23.012Z,4.79
2023-02-19T21:32:52.183Z,4.68
2023-02-19T21:35:21.297Z,4.78
2023-02-19T21:37:50.708Z,4.78
2023-02-19T21:40:23.342Z,4.87
2023-02-19T21:42:52.461Z,4.83
2023-02-19T21:45:21.590Z,4.92
2023-02-19T21:47:52.023Z,4.94
2023-02-19T21:50:21.578Z,4.89
2023-02-19T21:52:50.909Z,4.92
2023-02-19T21:55:21.350Z,4.89
2023-02-19T21:57:50.528Z,4.88
2023-02-19T22:00:20.199Z,4.93
2023-02-19T22:02:49.280Z,4.91
2023-02-19T22:05:18.549Z,4.94
2023-02-19T22:07:49.132Z,4.94
2023-02-19T22:10:18.777Z,5.06
2023-02-19T22:12:49.505Z,5.02
2023-02-19T22:15:18.759Z,5.08
2023-02-19T22:17:48.039Z,5.02
2023-02-19T22:20:19.511Z,5.03
2023-02-19T22:22:48.624Z,5.09
2023-02-19T22:25:17.764Z,4.98
2023-02-19T22:27:48.867Z,5.09
2023-02-19T22:30:18.500Z,5.02
2023-02-19T22:32:47.542Z,5.01
2023-02-19T22:35:16.762Z,5.13
2023-02-19T22:37:45.903Z,5.03
2023-02-19T22:40:15.279Z,5.10
2023-02-19T22:42:44.385Z,5.20
2023-02-19T22:45:15.716Z,5.09
2023-02-19T22:47:46.812Z,5.19
2023-02-19T22:50:19.540Z,5.24
2023-02-19T22:52:48.735Z,5.10
2023-02-19T22:55:18.332Z,5.19
2023-02-19T22:57:47.409Z,5.16
2023-02-19T23:00:21.501Z,5.19
2023-02-19T23:02:50.669Z,5.18
2023-02-19T23:05:19.729Z,5.24
2023-02-19T23:07:48.766Z,5.15
2023-02-19T23:10:18.146Z,5.36
2023-02-19T23:12:47.195Z,5.19
2023-02-19T23:15:16.292Z,5.20
2023-02-19T23:17:48.002Z,5.13
2023-02-19T23:20:17.333Z,5.14
2023-02-19T23:22:46.400Z,5.22
2023-02-19T23:25:15.667Z,5.15
2023-02-19T23:27:44.815Z,5.16
2023-02-19T23:30:15.869Z,5.15
2023-02-19T23:32:45.051Z,5.14
2023-02-19T23:35:15.453Z,5.06
2023-02-19T23:37:44.582Z,5.16
2023-02-19T23:40:14.884Z,5.31
2023-02-19T23:42:43.972Z,5.27
2023-02-19T23:45:13.322Z,5.20
2023-02-19T23:47:42.392Z,5.16
2023-02-19T23:50:11.917Z,5.35
2023-02-19T23:52:42.386Z,5.31
2023-02-19T23:55:13.475Z,5.36
2023-02-19T23:57:42.610Z,5.35
